sensor_id;sensor_type;location;lat;lon;timestamp;P1;durP1;ratioP1;P2;durP2;ratioP2
21034;SDS011;10676;50.848;3.272;2022-08-19T00:00:19;42.25;;;27.10;;
21034;SDS011;10676;50.848;3.272;2022-08-19T00:02:45;41.72;;;25.80;;
21034;SDS011;10676;50.848;3.272;2022-08-19T00:05:12;45.40;;;26.00;;
21034;SDS011;10676;50.848;3.272;2022-08-19T00:07:38;48.45;;;25.02;;
21034;SDS011;10676;50.848;3.272;2022-08-19T00:10:05;40.83;;;24.65;;
21034;SDS011;10676;50.848;3.272;2022-08-19T00:12:32;42.85;;;24.65;;
21034;SDS011;10676;50.848;3.272;2022-08-19T00:14:58;45.38;;;25.17;;
21034;SDS011;10676;50.848;3.272;2022-08-19T00:17:24;38.35;;;22.35;;
21034;SDS011;10676;50.848;3.272;2022-08-19T00:19:50;40.15;;;23.77;;
21034;SDS011;10676;50.848;3.272;2022-08-19T00:22:15;42.70;;;23.90;;
21034;SDS011;10676;50.848;3.272;2022-08-19T00:24:43;37.33;;;23.88;;
21034;SDS011;10676;50.848;3.272;2022-08-19T00:27:10;39.40;;;24.27;;
21034;SDS011;10676;50.848;3.272;2022-08-19T00:29:36;39.22;;;24.60;;
21034;SDS011;10676;50.848;3.272;2022-08-19T00:32:02;34.92;;;23.20;;
21034;SDS011;10676;50.848;3.272;2022-08-19T00:34:27;45.28;;;25.05;;
21034;SDS011;10676;50.848;3.272;2022-08-19T00:36:53;35.85;;;23.48;;
21034;SDS011;10676;50.848;3.272;2022-08-19T00:39:20;46.13;;;24.13;;
21034;SDS011;10676;50.848;3.272;2022-08-19T00:41:46;40.97;;;24.17;;
21034;SDS011;10676;50.848;3.272;2022-08-19T00:46:45;42.03;;;23.58;;
21034;SDS011;10676;50.848;3.272;2022-08-19T00:49:16;40.72;;;22.92;;
21034;SDS011;10676;50.848;3.272;2022-08-19T00:52:17;41.10;;;22.45;;
21034;SDS011;10676;50.848;3.272;2022-08-19T00:54:46;38.08;;;22.63;;
21034;SDS011;10676;50.848;3.272;2022-08-19T00:57:15;37.40;;;22.23;;
21034;SDS011;10676;50.848;3.272;2022-08-19T00:59:45;40.85;;;24.30;;
21034;SDS011;10676;50.848;3.272;2022-08-19T01:02:13;43.03;;;23.67;;
21034;SDS011;10676;50.848;3.272;2022-08-19T01:04:40;37.42;;;22.35;;
21034;SDS011;10676;50.848;3.272;2022-08-19T01:07:05;42.58;;;23.27;;
21034;SDS011;10676;50.848;3.272;2022-08-19T01:09:33;39.75;;;23.02;;
21034;SDS011;10676;50.848;3.272;2022-08-19T01:11:58;40.45;;;22.92;;
21034;SDS011;10676;50.848;3.272;2022-08-19T01:14:25;38.55;;;23.58;;
21034;SDS011;10676;50.848;3.272;2022-08-19T01:16:51;43.00;;;22.67;;
21034;SDS011;10676;50.848;3.272;2022-08-19T01:21:50;43.40;;;22.45;;
21034;SDS011;10676;50.848;3.272;2022-08-19T01:24:20;39.33;;;22.88;;
21034;SDS011;10676;50.848;3.272;2022-08-19T01:26:46;42.85;;;22.88;;
21034;SDS011;10676;50.848;3.272;2022-08-19T01:29:12;41.80;;;23.15;;
21034;SDS011;10676;50.848;3.272;2022-08-19T01:31:38;42.45;;;22.95;;
21034;SDS011;10676;50.848;3.272;2022-08-19T01:34:04;41.45;;;23.42;;
21034;SDS011;10676;50.848;3.272;2022-08-19T01:36:32;44.95;;;23.85;;
21034;SDS011;10676;50.848;3.272;2022-08-19T01:39:02;47.08;;;24.20;;
21034;SDS011;10676;50.848;3.272;2022-08-19T01:41:30;43.60;;;23.67;;
21034;SDS011;10676;50.848;3.272;2022-08-19T01:43:55;43.85;;;22.23;;
21034;SDS011;10676;50.848;3.272;2022-08-19T01:46:21;41.08;;;23.05;;
21034;SDS011;10676;50.848;3.272;2022-08-19T01:48:47;48.72;;;23.35;;
21034;SDS011;10676;50.848;3.272;2022-08-19T01:51:12;42.20;;;24.30;;
21034;SDS011;10676;50.848;3.272;2022-08-19T01:53:39;38.05;;;23.40;;
21034;SDS011;10676;50.848;3.272;2022-08-19T01:56:06;39.67;;;23.20;;
21034;SDS011;10676;50.848;3.272;2022-08-19T01:58:34;39.80;;;23.35;;
21034;SDS011;10676;50.848;3.272;2022-08-19T02:01:03;44.33;;;24.13;;
21034;SDS011;10676;50.848;3.272;2022-08-19T02:03:30;42.28;;;23.42;;
21034;SDS011;10676;50.848;3.272;2022-08-19T02:05:56;42.22;;;22.60;;
21034;SDS011;10676;50.848;3.272;2022-08-19T02:08:27;38.65;;;21.88;;
21034;SDS011;10676;50.848;3.272;2022-08-19T02:10:54;42.92;;;22.15;;
21034;SDS011;10676;50.848;3.272;2022-08-19T02:13:20;42.28;;;22.65;;
21034;SDS011;10676;50.848;3.272;2022-08-19T02:15:46;43.75;;;22.73;;
21034;SDS011;10676;50.848;3.272;2022-08-19T02:18:12;40.65;;;22.60;;
21034;SDS011;10676;50.848;3.272;2022-08-19T02:20:39;43.17;;;23.13;;
21034;SDS011;10676;50.848;3.272;2022-08-19T02:23:05;44.30;;;24.27;;
21034;SDS011;10676;50.848;3.272;2022-08-19T02:25:32;42.78;;;23.20;;
21034;SDS011;10676;50.848;3.272;2022-08-19T02:27:58;37.63;;;23.05;;
21034;SDS011;10676;50.848;3.272;2022-08-19T02:30:23;38.70;;;23.20;;
21034;SDS011;10676;50.848;3.272;2022-08-19T02:32:50;40.50;;;22.88;;
21034;SDS011;10676;50.848;3.272;2022-08-19T02:35:16;48.00;;;24.10;;
21034;SDS011;10676;50.848;3.272;2022-08-19T02:37:42;45.65;;;26.27;;
21034;SDS011;10676;50.848;3.272;2022-08-19T02:40:27;43.47;;;25.02;;
21034;SDS011;10676;50.848;3.272;2022-08-19T02:42:54;41.30;;;23.77;;
21034;SDS011;10676;50.848;3.272;2022-08-19T02:45:20;46.55;;;24.25;;
21034;SDS011;10676;50.848;3.272;2022-08-19T02:47:46;46.00;;;24.55;;
21034;SDS011;10676;50.848;3.272;2022-08-19T02:50:12;42.58;;;25.25;;
21034;SDS011;10676;50.848;3.272;2022-08-19T02:52:39;41.92;;;23.58;;
21034;SDS011;10676;50.848;3.272;2022-08-19T02:55:05;42.20;;;21.55;;
21034;SDS011;10676;50.848;3.272;2022-08-19T02:57:31;46.00;;;21.00;;
21034;SDS011;10676;50.848;3.272;2022-08-19T02:59:57;42.25;;;21.75;;
21034;SDS011;10676;50.848;3.272;2022-08-19T03:02:23;43.38;;;21.25;;
21034;SDS011;10676;50.848;3.272;2022-08-19T03:04:49;39.30;;;21.15;;
21034;SDS011;10676;50.848;3.272;2022-08-19T03:07:16;41.35;;;21.85;;
21034;SDS011;10676;50.848;3.272;2022-08-19T03:09:43;41.10;;;19.55;;
21034;SDS011;10676;50.848;3.272;2022-08-19T03:12:09;35.88;;;21.15;;
21034;SDS011;10676;50.848;3.272;2022-08-19T03:14:36;34.83;;;19.98;;
21034;SDS011;10676;50.848;3.272;2022-08-19T03:17:02;44.50;;;20.98;;
21034;SDS011;10676;50.848;3.272;2022-08-19T03:19:30;36.53;;;20.20;;
21034;SDS011;10676;50.848;3.272;2022-08-19T03:21:56;37.38;;;19.67;;
21034;SDS011;10676;50.848;3.272;2022-08-19T03:24:22;35.60;;;20.25;;
21034;SDS011;10676;50.848;3.272;2022-08-19T03:26:50;32.60;;;19.05;;
21034;SDS011;10676;50.848;3.272;2022-08-19T03:29:17;34.42;;;19.50;;
21034;SDS011;10676;50.848;3.272;2022-08-19T03:31:44;30.42;;;20.77;;
21034;SDS011;10676;50.848;3.272;2022-08-19T03:34:11;34.35;;;20.52;;
21034;SDS011;10676;50.848;3.272;2022-08-19T03:36:38;35.95;;;19.80;;
21034;SDS011;10676;50.848;3.272;2022-08-19T03:39:05;35.75;;;20.52;;
21034;SDS011;10676;50.848;3.272;2022-08-19T03:41:31;30.35;;;19.27;;
21034;SDS011;10676;50.848;3.272;2022-08-19T03:44:02;33.95;;;19.90;;
21034;SDS011;10676;50.848;3.272;2022-08-19T03:46:30;32.75;;;19.08;;
21034;SDS011;10676;50.848;3.272;2022-08-19T03:48:57;38.67;;;20.17;;
21034;SDS011;10676;50.848;3.272;2022-08-19T03:54:00;37.60;;;19.58;;
21034;SDS011;10676;50.848;3.272;2022-08-19T03:56:29;35.65;;;19.23;;
21034;SDS011;10676;50.848;3.272;2022-08-19T03:58:55;34.58;;;22.00;;
21034;SDS011;10676;50.848;3.272;2022-08-19T04:01:22;35.03;;;20.05;;
21034;SDS011;10676;50.848;3.272;2022-08-19T04:03:51;37.97;;;19.20;;
21034;SDS011;10676;50.848;3.272;2022-08-19T04:06:20;39.15;;;19.05;;
21034;SDS011;10676;50.848;3.272;2022-08-19T04:09:04;35.65;;;18.63;;
21034;SDS011;10676;50.848;3.272;2022-08-19T04:11:34;34.85;;;18.77;;
21034;SDS011;10676;50.848;3.272;2022-08-19T04:14:08;38.00;;;20.13;;
21034;SDS011;10676;50.848;3.272;2022-08-19T04:16:36;37.85;;;18.88;;
21034;SDS011;10676;50.848;3.272;2022-08-19T04:19:03;35.35;;;19.20;;
21034;SDS011;10676;50.848;3.272;2022-08-19T04:21:30;36.42;;;20.80;;
21034;SDS011;10676;50.848;3.272;2022-08-19T04:23:56;42.33;;;20.35;;
21034;SDS011;10676;50.848;3.272;2022-08-19T04:26:27;40.42;;;20.65;;
21034;SDS011;10676;50.848;3.272;2022-08-19T04:28:56;33.95;;;19.77;;
21034;SDS011;10676;50.848;3.272;2022-08-19T04:31:23;39.42;;;19.73;;
21034;SDS011;10676;50.848;3.272;2022-08-19T04:33:52;41.40;;;19.55;;
21034;SDS011;10676;50.848;3.272;2022-08-19T04:36:20;41.72;;;19.13;;
21034;SDS011;10676;50.848;3.272;2022-08-19T04:38:49;37.25;;;18.55;;
21034;SDS011;10676;50.848;3.272;2022-08-19T04:41:17;38.15;;;20.15;;
21034;SDS011;10676;50.848;3.272;2022-08-19T04:44:02;38.13;;;20.98;;
21034;SDS011;10676;50.848;3.272;2022-08-19T04:46:28;41.60;;;20.90;;
21034;SDS011;10676;50.848;3.272;2022-08-19T04:48:56;44.20;;;22.67;;
21034;SDS011;10676;50.848;3.272;2022-08-19T04:51:21;44.05;;;23.38;;
21034;SDS011;10676;50.848;3.272;2022-08-19T04:53:47;44.58;;;20.95;;
21034;SDS011;10676;50.848;3.272;2022-08-19T04:56:14;46.35;;;21.77;;
21034;SDS011;10676;50.848;3.272;2022-08-19T04:58:42;40.17;;;22.13;;
21034;SDS011;10676;50.848;3.272;2022-08-19T05:01:12;43.55;;;21.90;;
21034;SDS011;10676;50.848;3.272;2022-08-19T05:03:41;36.92;;;21.05;;
21034;SDS011;10676;50.848;3.272;2022-08-19T05:06:09;41.70;;;21.63;;
21034;SDS011;10676;50.848;3.272;2022-08-19T05:08:37;43.33;;;22.00;;
21034;SDS011;10676;50.848;3.272;2022-08-19T05:11:10;48.55;;;23.35;;
21034;SDS011;10676;50.848;3.272;2022-08-19T05:13:36;50.25;;;22.50;;
21034;SDS011;10676;50.848;3.272;2022-08-19T05:16:02;48.97;;;22.20;;
21034;SDS011;10676;50.848;3.272;2022-08-19T05:18:28;51.17;;;23.15;;
21034;SDS011;10676;50.848;3.272;2022-08-19T05:21:13;44.35;;;22.23;;
21034;SDS011;10676;50.848;3.272;2022-08-19T05:24:00;41.80;;;23.95;;
21034;SDS011;10676;50.848;3.272;2022-08-19T05:26:27;47.90;;;22.10;;
21034;SDS011;10676;50.848;3.272;2022-08-19T05:28:53;45.42;;;23.52;;
21034;SDS011;10676;50.848;3.272;2022-08-19T05:31:20;43.20;;;23.92;;
21034;SDS011;10676;50.848;3.272;2022-08-19T05:33:46;43.03;;;23.35;;
21034;SDS011;10676;50.848;3.272;2022-08-19T05:36:12;44.15;;;22.50;;
21034;SDS011;10676;50.848;3.272;2022-08-19T05:38:39;45.35;;;22.45;;
21034;SDS011;10676;50.848;3.272;2022-08-19T05:41:11;36.90;;;21.45;;
21034;SDS011;10676;50.848;3.272;2022-08-19T05:43:39;37.97;;;21.52;;
21034;SDS011;10676;50.848;3.272;2022-08-19T05:46:05;33.17;;;21.10;;
21034;SDS011;10676;50.848;3.272;2022-08-19T05:48:32;41.95;;;20.23;;
21034;SDS011;10676;50.848;3.272;2022-08-19T05:51:03;42.65;;;21.77;;
21034;SDS011;10676;50.848;3.272;2022-08-19T05:53:31;31.17;;;20.63;;
21034;SDS011;10676;50.848;3.272;2022-08-19T05:55:58;30.00;;;20.45;;
21034;SDS011;10676;50.848;3.272;2022-08-19T05:58:39;29.90;;;20.42;;
21034;SDS011;10676;50.848;3.272;2022-08-19T06:01:09;36.08;;;18.48;;
21034;SDS011;10676;50.848;3.272;2022-08-19T06:03:40;29.73;;;18.45;;
21034;SDS011;10676;50.848;3.272;2022-08-19T06:06:07;26.80;;;17.30;;
21034;SDS011;10676;50.848;3.272;2022-08-19T06:08:34;24.50;;;16.52;;
21034;SDS011;10676;50.848;3.272;2022-08-19T06:14:00;22.00;;;16.00;;
21034;SDS011;10676;50.848;3.272;2022-08-19T06:16:28;19.95;;;13.15;;
21034;SDS011;10676;50.848;3.272;2022-08-19T06:18:57;19.63;;;12.73;;
21034;SDS011;10676;50.848;3.272;2022-08-19T06:21:26;20.20;;;12.10;;
21034;SDS011;10676;50.848;3.272;2022-08-19T06:23:53;17.95;;;13.05;;
21034;SDS011;10676;50.848;3.272;2022-08-19T06:26:22;15.52;;;11.07;;
21034;SDS011;10676;50.848;3.272;2022-08-19T06:28:49;16.27;;;11.68;;
21034;SDS011;10676;50.848;3.272;2022-08-19T06:31:16;14.75;;;10.50;;
21034;SDS011;10676;50.848;3.272;2022-08-19T06:33:45;16.42;;;11.15;;
21034;SDS011;10676;50.848;3.272;2022-08-19T06:36:24;16.25;;;11.10;;
21034;SDS011;10676;50.848;3.272;2022-08-19T06:38:54;19.23;;;10.93;;
21034;SDS011;10676;50.848;3.272;2022-08-19T06:41:22;12.40;;;10.35;;
21034;SDS011;10676;50.848;3.272;2022-08-19T06:43:49;16.50;;;9.77;;
21034;SDS011;10676;50.848;3.272;2022-08-19T06:46:15;14.65;;;10.00;;
21034;SDS011;10676;50.848;3.272;2022-08-19T06:48:43;15.75;;;9.50;;
21034;SDS011;10676;50.848;3.272;2022-08-19T06:51:09;14.90;;;9.95;;
21034;SDS011;10676;50.848;3.272;2022-08-19T06:53:35;15.38;;;9.25;;
21034;SDS011;10676;50.848;3.272;2022-08-19T06:56:01;13.70;;;9.32;;
21034;SDS011;10676;50.848;3.272;2022-08-19T06:58:30;16.05;;;9.13;;
21034;SDS011;10676;50.848;3.272;2022-08-19T07:01:02;13.13;;;9.75;;
21034;SDS011;10676;50.848;3.272;2022-08-19T07:03:30;11.07;;;9.77;;
21034;SDS011;10676;50.848;3.272;2022-08-19T07:06:02;13.60;;;8.70;;
21034;SDS011;10676;50.848;3.272;2022-08-19T07:08:29;13.18;;;8.57;;
21034;SDS011;10676;50.848;3.272;2022-08-19T07:10:55;11.20;;;8.27;;
21034;SDS011;10676;50.848;3.272;2022-08-19T07:13:20;13.20;;;9.48;;
21034;SDS011;10676;50.848;3.272;2022-08-19T07:15:47;15.45;;;9.23;;
21034;SDS011;10676;50.848;3.272;2022-08-19T07:18:14;13.73;;;8.85;;
21034;SDS011;10676;50.848;3.272;2022-08-19T07:20:40;12.80;;;8.75;;
21034;SDS011;10676;50.848;3.272;2022-08-19T07:23:06;12.77;;;9.05;;
21034;SDS011;10676;50.848;3.272;2022-08-19T07:25:32;13.38;;;9.40;;
21034;SDS011;10676;50.848;3.272;2022-08-19T07:27:57;12.05;;;8.98;;
21034;SDS011;10676;50.848;3.272;2022-08-19T07:30:23;9.68;;;8.13;;
21034;SDS011;10676;50.848;3.272;2022-08-19T07:32:49;10.30;;;7.90;;
21034;SDS011;10676;50.848;3.272;2022-08-19T07:35:16;11.73;;;8.20;;
21034;SDS011;10676;50.848;3.272;2022-08-19T07:37:44;11.38;;;8.20;;
21034;SDS011;10676;50.848;3.272;2022-08-19T07:40:10;10.55;;;8.05;;
21034;SDS011;10676;50.848;3.272;2022-08-19T07:42:36;14.55;;;8.20;;
21034;SDS011;10676;50.848;3.272;2022-08-19T07:45:02;10.32;;;8.07;;
21034;SDS011;10676;50.848;3.272;2022-08-19T07:47:29;9.93;;;7.60;;
21034;SDS011;10676;50.848;3.272;2022-08-19T07:49:55;8.65;;;7.65;;
21034;SDS011;10676;50.848;3.272;2022-08-19T07:52:21;10.90;;;8.60;;
21034;SDS011;10676;50.848;3.272;2022-08-19T07:54:47;11.75;;;7.70;;
21034;SDS011;10676;50.848;3.272;2022-08-19T07:57:14;11.00;;;7.28;;
21034;SDS011;10676;50.848;3.272;2022-08-19T07:59:41;9.43;;;7.32;;
21034;SDS011;10676;50.848;3.272;2022-08-19T08:02:07;12.27;;;8.48;;
21034;SDS011;10676;50.848;3.272;2022-08-19T08:04:34;12.95;;;6.93;;
21034;SDS011;10676;50.848;3.272;2022-08-19T08:07:18;8.43;;;7.20;;
21034;SDS011;10676;50.848;3.272;2022-08-19T08:10:03;10.30;;;6.45;;
21034;SDS011;10676;50.848;3.272;2022-08-19T08:12:32;9.45;;;6.40;;
21034;SDS011;10676;50.848;3.272;2022-08-19T08:15:05;7.78;;;6.05;;
21034;SDS011;10676;50.848;3.272;2022-08-19T08:17:33;7.57;;;6.07;;
21034;SDS011;10676;50.848;3.272;2022-08-19T08:19:59;6.70;;;6.03;;
21034;SDS011;10676;50.848;3.272;2022-08-19T08:22:25;8.20;;;5.68;;
21034;SDS011;10676;50.848;3.272;2022-08-19T08:25:19;6.63;;;5.07;;
21034;SDS011;10676;50.848;3.272;2022-08-19T08:27:47;5.82;;;4.50;;
21034;SDS011;10676;50.848;3.272;2022-08-19T08:30:19;5.55;;;5.05;;
21034;SDS011;10676;50.848;3.272;2022-08-19T08:32:50;5.85;;;5.35;;
21034;SDS011;10676;50.848;3.272;2022-08-19T08:35:18;4.57;;;4.18;;
21034;SDS011;10676;50.848;3.272;2022-08-19T08:37:47;6.93;;;4.30;;
21034;SDS011;10676;50.848;3.272;2022-08-19T08:42:51;6.55;;;5.22;;
21034;SDS011;10676;50.848;3.272;2022-08-19T08:45:30;5.00;;;4.38;;
21034;SDS011;10676;50.848;3.272;2022-08-19T08:48:00;5.05;;;4.65;;
21034;SDS011;10676;50.848;3.272;2022-08-19T08:50:43;7.07;;;5.70;;
21034;SDS011;10676;50.848;3.272;2022-08-19T08:53:12;6.05;;;5.43;;
21034;SDS011;10676;50.848;3.272;2022-08-19T08:55:41;7.22;;;6.57;;
21034;SDS011;10676;50.848;3.272;2022-08-19T08:58:09;8.13;;;7.65;;
21034;SDS011;10676;50.848;3.272;2022-08-19T09:00:43;10.82;;;10.10;;
21034;SDS011;10676;50.848;3.272;2022-08-19T09:03:16;9.38;;;8.45;;
21034;SDS011;10676;50.848;3.272;2022-08-19T09:14:39;5.30;;;4.80;;
21034;SDS011;10676;50.848;3.272;2022-08-19T09:17:26;6.72;;;6.07;;
21034;SDS011;10676;50.848;3.272;2022-08-19T09:20:16;5.65;;;5.20;;
21034;SDS011;10676;50.848;3.272;2022-08-19T09:22:45;5.43;;;5.13;;
21034;SDS011;10676;50.848;3.272;2022-08-19T09:25:12;5.22;;;5.03;;
21034;SDS011;10676;50.848;3.272;2022-08-19T09:27:41;5.60;;;5.10;;
21034;SDS011;10676;50.848;3.272;2022-08-19T09:30:08;4.82;;;4.45;;
21034;SDS011;10676;50.848;3.272;2022-08-19T09:32:42;4.18;;;3.97;;
21034;SDS011;10676;50.848;3.272;2022-08-19T09:35:10;4.78;;;4.38;;
21034;SDS011;10676;50.848;3.272;2022-08-19T09:37:37;5.68;;;5.38;;
21034;SDS011;10676;50.848;3.272;2022-08-19T09:40:03;7.72;;;7.22;;
21034;SDS011;10676;50.848;3.272;2022-08-19T09:42:29;7.55;;;6.97;;
21034;SDS011;10676;50.848;3.272;2022-08-19T09:44:55;7.35;;;6.97;;
21034;SDS011;10676;50.848;3.272;2022-08-19T09:47:21;6.07;;;5.65;;
21034;SDS011;10676;50.848;3.272;2022-08-19T09:49:46;6.45;;;6.15;;
21034;SDS011;10676;50.848;3.272;2022-08-19T09:52:13;6.32;;;5.50;;
21034;SDS011;10676;50.848;3.272;2022-08-19T09:54:41;4.43;;;4.03;;
21034;SDS011;10676;50.848;3.272;2022-08-19T09:57:06;6.43;;;6.13;;
21034;SDS011;10676;50.848;3.272;2022-08-19T09:59:32;5.15;;;4.85;;
21034;SDS011;10676;50.848;3.272;2022-08-19T10:01:58;5.20;;;4.90;;
21034;SDS011;10676;50.848;3.272;2022-08-19T10:04:24;4.55;;;4.20;;
21034;SDS011;10676;50.848;3.272;2022-08-19T10:07:09;5.45;;;4.65;;
21034;SDS011;10676;50.848;3.272;2022-08-19T10:09:35;4.93;;;4.65;;
21034;SDS011;10676;50.848;3.272;2022-08-19T10:12:02;5.72;;;4.78;;
21034;SDS011;10676;50.848;3.272;2022-08-19T10:14:28;10.15;;;9.35;;
21034;SDS011;10676;50.848;3.272;2022-08-19T10:16:55;9.32;;;8.82;;
21034;SDS011;10676;50.848;3.272;2022-08-19T10:19:21;9.57;;;9.07;;
21034;SDS011;10676;50.848;3.272;2022-08-19T10:21:47;10.55;;;9.95;;
21034;SDS011;10676;50.848;3.272;2022-08-19T10:24:13;8.02;;;7.53;;
21034;SDS011;10676;50.848;3.272;2022-08-19T10:26:39;8.80;;;8.30;;
21034;SDS011;10676;50.848;3.272;2022-08-19T10:29:10;8.48;;;7.90;;
21034;SDS011;10676;50.848;3.272;2022-08-19T10:31:36;8.68;;;8.27;;
21034;SDS011;10676;50.848;3.272;2022-08-19T10:34:02;8.63;;;8.23;;
21034;SDS011;10676;50.848;3.272;2022-08-19T10:36:29;9.15;;;8.50;;
21034;SDS011;10676;50.848;3.272;2022-08-19T10:39:01;10.27;;;9.88;;
21034;SDS011;10676;50.848;3.272;2022-08-19T10:41:31;9.82;;;9.32;;
21034;SDS011;10676;50.848;3.272;2022-08-19T10:44:00;11.57;;;10.95;;
21034;SDS011;10676;50.848;3.272;2022-08-19T10:46:28;10.30;;;9.90;;
21034;SDS011;10676;50.848;3.272;2022-08-19T10:48:57;10.43;;;9.82;;
21034;SDS011;10676;50.848;3.272;2022-08-19T10:51:24;12.68;;;12.07;;
21034;SDS011;10676;50.848;3.272;2022-08-19T10:54:09;13.25;;;12.70;;
21034;SDS011;10676;50.848;3.272;2022-08-19T10:56:35;13.55;;;12.85;;
21034;SDS011;10676;50.848;3.272;2022-08-19T10:59:16;12.70;;;12.10;;
21034;SDS011;10676;50.848;3.272;2022-08-19T11:01:52;16.52;;;15.60;;
21034;SDS011;10676;50.848;3.272;2022-08-19T11:04:19;12.80;;;12.20;;
21034;SDS011;10676;50.848;3.272;2022-08-19T11:06:46;13.07;;;12.38;;
21034;SDS011;10676;50.848;3.272;2022-08-19T11:09:18;15.68;;;14.98;;
21034;SDS011;10676;50.848;3.272;2022-08-19T11:11:46;12.00;;;11.45;;
21034;SDS011;10676;50.848;3.272;2022-08-19T11:14:13;10.63;;;10.18;;
21034;SDS011;10676;50.848;3.272;2022-08-19T11:16:41;11.25;;;10.70;;
21034;SDS011;10676;50.848;3.272;2022-08-19T11:19:08;12.75;;;12.05;;
21034;SDS011;10676;50.848;3.272;2022-08-19T11:21:40;12.77;;;12.18;;
21034;SDS011;10676;50.848;3.272;2022-08-19T11:24:09;13.43;;;12.75;;
21034;SDS011;10676;50.848;3.272;2022-08-19T11:26:45;13.70;;;13.00;;
21034;SDS011;10676;50.848;3.272;2022-08-19T11:29:14;14.77;;;13.95;;
21034;SDS011;10676;50.848;3.272;2022-08-19T11:31:42;13.50;;;12.88;;
21034;SDS011;10676;50.848;3.272;2022-08-19T11:34:11;11.40;;;10.90;;
21034;SDS011;10676;50.848;3.272;2022-08-19T11:36:42;8.70;;;8.20;;
21034;SDS011;10676;50.848;3.272;2022-08-19T11:39:10;8.68;;;8.20;;
21034;SDS011;10676;50.848;3.272;2022-08-19T11:41:37;9.27;;;8.77;;
21034;SDS011;10676;50.848;3.272;2022-08-19T11:44:04;9.43;;;8.63;;
21034;SDS011;10676;50.848;3.272;2022-08-19T11:46:30;9.27;;;8.48;;
21034;SDS011;10676;50.848;3.272;2022-08-19T11:48:56;8.65;;;8.15;;
21034;SDS011;10676;50.848;3.272;2022-08-19T11:51:24;8.57;;;8.05;;
21034;SDS011;10676;50.848;3.272;2022-08-19T11:53:51;8.75;;;8.15;;
21034;SDS011;10676;50.848;3.272;2022-08-19T11:56:18;8.60;;;8.10;;
21034;SDS011;10676;50.848;3.272;2022-08-19T11:58:44;8.82;;;8.32;;
21034;SDS011;10676;50.848;3.272;2022-08-19T12:01:11;8.60;;;8.20;;
21034;SDS011;10676;50.848;3.272;2022-08-19T12:03:40;8.98;;;7.65;;
21034;SDS011;10676;50.848;3.272;2022-08-19T12:06:07;21.17;;;19.75;;
21034;SDS011;10676;50.848;3.272;2022-08-19T12:08:38;13.57;;;6.65;;
21034;SDS011;10676;50.848;3.272;2022-08-19T12:11:05;6.45;;;5.07;;
21034;SDS011;10676;50.848;3.272;2022-08-19T12:13:33;5.05;;;4.63;;
21034;SDS011;10676;50.848;3.272;2022-08-19T12:16:00;4.82;;;3.40;;
21034;SDS011;10676;50.848;3.272;2022-08-19T12:18:31;5.47;;;4.95;;
21034;SDS011;10676;50.848;3.272;2022-08-19T12:20:57;5.50;;;4.10;;
21034;SDS011;10676;50.848;3.272;2022-08-19T12:23:25;8.38;;;3.47;;
21034;SDS011;10676;50.848;3.272;2022-08-19T12:25:52;4.43;;;3.97;;
21034;SDS011;10676;50.848;3.272;2022-08-19T12:28:20;6.03;;;5.43;;
21034;SDS011;10676;50.848;3.272;2022-08-19T12:30:47;4.43;;;3.60;;
21034;SDS011;10676;50.848;3.272;2022-08-19T12:33:16;4.30;;;3.85;;
21034;SDS011;10676;50.848;3.272;2022-08-19T12:35:44;5.82;;;5.32;;
21034;SDS011;10676;50.848;3.272;2022-08-19T12:38:12;5.63;;;5.13;;
21034;SDS011;10676;50.848;3.272;2022-08-19T12:40:38;6.47;;;5.85;;
21034;SDS011;10676;50.848;3.272;2022-08-19T12:43:05;6.75;;;6.18;;
21034;SDS011;10676;50.848;3.272;2022-08-19T12:45:32;8.07;;;7.28;;
21034;SDS011;10676;50.848;3.272;2022-08-19T12:47:59;7.25;;;6.68;;
21034;SDS011;10676;50.848;3.272;2022-08-19T12:50:25;7.13;;;6.22;;
21034;SDS011;10676;50.848;3.272;2022-08-19T12:52:51;9.27;;;8.45;;
21034;SDS011;10676;50.848;3.272;2022-08-19T12:55:17;8.82;;;8.10;;
21034;SDS011;10676;50.848;3.272;2022-08-19T12:57:44;7.97;;;7.38;;
21034;SDS011;10676;50.848;3.272;2022-08-19T13:00:14;9.32;;;8.43;;
21034;SDS011;10676;50.848;3.272;2022-08-19T13:02:45;10.38;;;9.68;;
21034;SDS011;10676;50.848;3.272;2022-08-19T13:05:15;10.38;;;9.57;;
21034;SDS011;10676;50.848;3.272;2022-08-19T13:07:46;9.02;;;8.43;;
21034;SDS011;10676;50.848;3.272;2022-08-19T13:10:13;9.15;;;8.23;;
21034;SDS011;10676;50.848;3.272;2022-08-19T13:12:41;9.95;;;9.00;;
21034;SDS011;10676;50.848;3.272;2022-08-19T13:15:07;8.43;;;7.70;;
21034;SDS011;10676;50.848;3.272;2022-08-19T13:17:34;8.73;;;8.05;;
21034;SDS011;10676;50.848;3.272;2022-08-19T13:20:00;8.48;;;7.68;;
21034;SDS011;10676;50.848;3.272;2022-08-19T13:22:26;7.85;;;7.25;;
21034;SDS011;10676;50.848;3.272;2022-08-19T13:24:52;7.70;;;6.97;;
21034;SDS011;10676;50.848;3.272;2022-08-19T13:27:18;7.90;;;7.20;;
21034;SDS011;10676;50.848;3.272;2022-08-19T13:29:43;8.07;;;6.78;;
21034;SDS011;10676;50.848;3.272;2022-08-19T13:32:28;7.38;;;6.82;;
21034;SDS011;10676;50.848;3.272;2022-08-19T13:35:14;7.97;;;7.47;;
21034;SDS011;10676;50.848;3.272;2022-08-19T13:37:42;7.53;;;6.97;;
21034;SDS011;10676;50.848;3.272;2022-08-19T13:40:09;6.80;;;6.15;;
21034;SDS011;10676;50.848;3.272;2022-08-19T13:42:42;5.90;;;5.40;;
21034;SDS011;10676;50.848;3.272;2022-08-19T13:45:11;6.38;;;5.88;;
21034;SDS011;10676;50.848;3.272;2022-08-19T13:47:37;7.22;;;6.72;;
21034;SDS011;10676;50.848;3.272;2022-08-19T13:50:10;6.65;;;5.90;;
21034;SDS011;10676;50.848;3.272;2022-08-19T13:52:38;6.18;;;5.75;;
21034;SDS011;10676;50.848;3.272;2022-08-19T13:55:04;7.00;;;6.60;;
21034;SDS011;10676;50.848;3.272;2022-08-19T13:57:31;6.90;;;6.57;;
21034;SDS011;10676;50.848;3.272;2022-08-19T13:59:59;7.80;;;7.40;;
21034;SDS011;10676;50.848;3.272;2022-08-19T14:02:26;6.18;;;5.88;;
21034;SDS011;10676;50.848;3.272;2022-08-19T14:04:52;6.35;;;5.95;;
21034;SDS011;10676;50.848;3.272;2022-08-19T14:07:18;5.85;;;5.55;;
21034;SDS011;10676;50.848;3.272;2022-08-19T14:09:43;6.78;;;6.45;;
21034;SDS011;10676;50.848;3.272;2022-08-19T14:12:09;6.70;;;6.32;;
21034;SDS011;10676;50.848;3.272;2022-08-19T14:14:38;5.72;;;5.43;;
21034;SDS011;10676;50.848;3.272;2022-08-19T14:17:07;6.63;;;6.32;;
21034;SDS011;10676;50.848;3.272;2022-08-19T14:19:34;6.60;;;6.25;;
21034;SDS011;10676;50.848;3.272;2022-08-19T14:22:00;6.90;;;6.60;;
21034;SDS011;10676;50.848;3.272;2022-08-19T14:24:26;7.40;;;6.90;;
21034;SDS011;10676;50.848;3.272;2022-08-19T14:26:52;7.65;;;7.25;;
21034;SDS011;10676;50.848;3.272;2022-08-19T14:29:18;7.10;;;6.70;;
21034;SDS011;10676;50.848;3.272;2022-08-19T14:31:43;7.22;;;6.82;;
21034;SDS011;10676;50.848;3.272;2022-08-19T14:34:10;6.53;;;6.13;;
21034;SDS011;10676;50.848;3.272;2022-08-19T14:36:37;6.63;;;6.32;;
21034;SDS011;10676;50.848;3.272;2022-08-19T14:39:03;7.13;;;6.80;;
21034;SDS011;10676;50.848;3.272;2022-08-19T14:41:30;8.32;;;7.93;;
21034;SDS011;10676;50.848;3.272;2022-08-19T14:43:56;8.50;;;8.00;;
21034;SDS011;10676;50.848;3.272;2022-08-19T14:46:25;8.80;;;8.23;;
21034;SDS011;10676;50.848;3.272;2022-08-19T14:48:52;7.65;;;7.35;;
21034;SDS011;10676;50.848;3.272;2022-08-19T14:51:20;10.13;;;9.32;;
21034;SDS011;10676;50.848;3.272;2022-08-19T14:53:47;9.57;;;9.07;;
21034;SDS011;10676;50.848;3.272;2022-08-19T14:56:17;9.20;;;8.80;;
21034;SDS011;10676;50.848;3.272;2022-08-19T14:58:46;8.73;;;8.32;;
21034;SDS011;10676;50.848;3.272;2022-08-19T15:01:16;8.35;;;7.78;;